createdAt,value
2022-08-17T00:01:24.187Z,100967.16
2022-08-17T00:05:31.543Z,100968.81
2022-08-17T00:09:33.601Z,100971.28
2022-08-17T00:13:41.682Z,100973.41
2022-08-17T00:17:47.177Z,100968.19
2022-08-17T00:22:31.451Z,100967.16
2022-08-17T00:26:14.294Z,100964.91
2022-08-17T00:30:16.069Z,100956.38
2022-08-17T00:34:18.017Z,100965.59
2022-08-17T00:38:20.270Z,100957.66
2022-08-17T00:42:21.877Z,100956.47
2022-08-17T00:46:30.388Z,100960.25
2022-08-17T00:50:32.458Z,100952.09
2022-08-17T00:54:41.833Z,100947.25
2022-08-17T00:58:44.651Z,100942.69
2022-08-17T01:02:47.824Z,100936.66
2022-08-17T01:06:50.963Z,100926.50
2022-08-17T01:10:57.254Z,100924.84
2022-08-17T01:15:05.906Z,100922.31
2022-08-17T01:19:17.028Z,100925.25
2022-08-17T01:23:21.351Z,100933.41
2022-08-17T01:27:24.477Z,100945.28
2022-08-17T01:31:30.627Z,100949.69
2022-08-17T01:35:32.258Z,100948.00
2022-08-17T01:39:42.237Z,100949.06
2022-08-17T01:43:49.723Z,100950.38
2022-08-17T01:47:52.964Z,100958.84
2022-08-17T01:51:55.189Z,100960.53
2022-08-17T01:56:08.518Z,100949.06
2022-08-17T02:00:10.875Z,100969.13
2022-08-17T02:04:12.822Z,101031.09
2022-08-17T02:08:20.026Z,101028.53
2022-08-17T02:12:39.340Z,101040.03
2022-08-17T02:16:41.913Z,101031.41
2022-08-17T02:20:43.819Z,101043.00
2022-08-17T02:24:58.798Z,101049.63
2022-08-17T02:29:04.166Z,101052.59
2022-08-17T02:33:09.399Z,101057.50
2022-08-17T02:37:11.136Z,101040.88
2022-08-17T02:41:13.034Z,101047.88
2022-08-17T02:45:20.812Z,101051.13
2022-08-17T02:49:22.375Z,101057.50
2022-08-17T02:53:23.995Z,101070.09
2022-08-17T02:57:27.243Z,101051.97
2022-08-17T03:01:29.103Z,101050.53
2022-08-17T03:05:33.869Z,101021.38
2022-08-17T03:09:35.559Z,101016.84
2022-08-17T03:13:37.412Z,101004.78
2022-08-17T03:17:39.254Z,101005.25
2022-08-17T03:21:40.910Z,101002.97
2022-08-17T03:25:44.100Z,101003.84
2022-08-17T03:29:45.967Z,101009.13
2022-08-17T03:33:48.173Z,101004.16
2022-08-17T03:37:56.961Z,101009.38
2022-08-17T03:42:32.278Z,101018.13
2022-08-17T03:46:52.923Z,101016.88
2022-08-17T03:51:15.313Z,101013.34
2022-08-17T03:55:36.329Z,101004.16
2022-08-17T03:59:39.462Z,100989.25
2022-08-17T04:03:42.603Z,100987.16
2022-08-17T04:07:44.275Z,101002.84
2022-08-17T04:11:45.856Z,101008.25
2022-08-17T04:15:49.170Z,101013.03
2022-08-17T04:19:50.933Z,101008.28
2022-08-17T04:23:52.752Z,101001.41
2022-08-17T04:27:55.034Z,101007.91
2022-08-17T04:31:58.075Z,100998.56
2022-08-17T04:36:02.119Z,100990.25
2022-08-17T04:40:23.034Z,100971.94
2022-08-17T04:44:36.950Z,100970.31
2022-08-17T04:48:43.515Z,100961.41
2022-08-17T04:52:46.384Z,100956.22
2022-08-17T04:56:48.290Z,100958.72
2022-08-17T05:00:50.168Z,100953.09
2022-08-17T05:04:51.850Z,100962.47
2022-08-17T05:08:54.845Z,100958.72
2022-08-17T05:13:11.811Z,100956.00
2022-08-17T05:17:13.553Z,100950.59
2022-08-17T05:21:15.899Z,100958.28
2022-08-17T05:25:24.957Z,100950.78
2022-08-17T05:29:35.289Z,100957.66
2022-08-17T05:33:44.291Z,100967.81
2022-08-17T05:37:46.938Z,100977.81
2022-08-17T05:41:48.649Z,100974.06
2022-08-17T05:46:03.370Z,100975.31
2022-08-17T05:50:09.435Z,100968.69
2022-08-17T05:54:26.609Z,100964.75
2022-08-17T05:58:49.479Z,100961.66
2022-08-17T06:03:24.317Z,100969.19
2022-08-17T06:07:37.793Z,100974.59
2022-08-17T06:11:47.872Z,100984.13
2022-08-17T06:16:04.702Z,100987.66
2022-08-17T06:20:36.016Z,101001.41
2022-08-17T06:24:58.993Z,101002.66
2022-08-17T06:29:04.350Z,101016.63
2022-08-17T06:33:21.169Z,101004.72
2022-08-17T06:37:48.818Z,100993.91
2022-08-17T06:41:59.244Z,100999.72
2022-08-17T06:46:10.891Z,101002.81
2022-08-17T06:50:22.091Z,101009.91
2022-08-17T06:54:39.871Z,101021.97
2022-08-17T06:58:44.199Z,101026.97
2022-08-17T07:03:10.438Z,101028.63
2022-08-17T07:07:31.733Z,101035.84
2022-08-17T07:11:50.476Z,101045.22
2022-08-17T07:15:57.146Z,101048.97
2022-08-17T07:20:09.346Z,101035.66
2022-08-17T07:24:28.134Z,101028.78
2022-08-17T07:28:33.805Z,101039.63
2022-08-17T07:32:57.816Z,101045.03
2022-08-17T07:37:05.537Z,101038.56
2022-08-17T07:41:10.680Z,101049.59
2022-08-17T07:45:34.476Z,101057.47
2022-08-17T07:49:42.506Z,101060.59
2022-08-17T07:53:45.245Z,101055.38
2022-08-17T07:57:55.668Z,101058.47
2022-08-17T08:02:08.069Z,101063.22
2022-08-17T08:06:24.398Z,101076.25
2022-08-17T08:10:27.603Z,101083.28
2022-08-17T08:14:38.357Z,101081.16
2022-08-17T08:18:54.253Z,101084.84
2022-08-17T08:23:03.442Z,101094.00
2022-08-17T08:27:37.413Z,101081.81
2022-08-17T08:31:57.779Z,101087.13
2022-08-17T08:36:08.236Z,101087.44
2022-08-17T08:40:39.235Z,101101.56
2022-08-17T08:45:01.302Z,101108.41
2022-08-17T08:49:45.173Z,101108.69
2022-08-17T08:54:11.128Z,101097.50
2022-08-17T08:58:41.840Z,101102.94
2022-08-17T09:02:43.991Z,101110.03
2022-08-17T09:06:57.232Z,101115.00
2022-08-17T09:11:08.279Z,101120.03
2022-08-17T09:15:28.507Z,101119.06
2022-08-17T09:19:57.122Z,101131.84
2022-08-17T09:24:02.403Z,101136.47
2022-08-17T09:28:14.200Z,101140.84
2022-08-17T09:32:42.203Z,101145.63
2022-08-17T09:36:51.849Z,101152.66
2022-08-17T09:41:02.975Z,101151.75
2022-08-17T09:45:24.088Z,101149.63
2022-08-17T09:49:33.681Z,101163.66
2022-08-17T09:53:37.222Z,101163.56
2022-08-17T09:57:59.027Z,101158.06
2022-08-17T10:02:28.475Z,101160.34
2022-08-17T10:06:37.830Z,101158.69
2022-08-17T10:10:56.435Z,101159.53
2022-08-17T10:15:27.574Z,101156.03
2022-08-17T10:19:39.727Z,101154.00
2022-08-17T10:24:09.155Z,101136.50
2022-08-17T10:28:20.246Z,101148.81
2022-08-17T10:32:33.513Z,101148.81
2022-08-17T10:36:46.197Z,101145.50
2022-08-17T10:41:01.219Z,101142.78
2022-08-17T10:45:17.442Z,101145.50
2022-08-17T10:49:19.038Z,101157.56
2022-08-17T10:53:32.641Z,101152.78
2022-08-17T10:57:38.848Z,101158.81
2022-08-17T11:01:43.363Z,101159.44
2022-08-17T11:05:54.094Z,101150.63
2022-08-17T11:10:17.886Z,101163.34
2022-08-17T11:15:08.424Z,101162.72
2022-08-17T11:19:35.700Z,101170.72
2022-08-17T11:24:08.386Z,101160.25
2022-08-17T11:28:22.038Z,101176.94
2022-08-17T11:32:47.079Z,101185.66
2022-08-17T11:37:01.989Z,101182.78
2022-08-17T11:41:03.602Z,101196.22
2022-08-17T11:45:31.657Z,101204.97
2022-08-17T11:50:17.325Z,101202.50
2022-08-17T11:54:33.731Z,101202.94
2022-08-17T11:58:37.861Z,101206.69
2022-08-17T12:02:48.164Z,101201.28
2022-08-17T12:07:13.254Z,101201.28
2022-08-17T12:11:58.789Z,101194.94
2022-08-17T12:15:49.655Z,101184.88
2022-08-17T12:19:53.052Z,101181.16
2022-08-17T12:24:14.991Z,101178.63
2022-08-17T12:28:36.583Z,101162.38
2022-08-17T12:32:40.559Z,101164.09
2022-08-17T12:36:42.416Z,101163.72
2022-08-17T12:40:54.662Z,101173.13
2022-08-17T12:45:00.154Z,101165.81
2022-08-17T12:49:35.635Z,101159.19
2022-08-17T12:53:37.342Z,101167.59
2022-08-17T12:57:38.921Z,101164.28
2022-08-17T13:01:42.246Z,101152.22
2022-08-17T13:05:54.483Z,101145.56
2022-08-17T13:09:56.202Z,101142.69
2022-08-17T13:14:09.507Z,101137.31
2022-08-17T13:18:33.612Z,101139.03
2022-08-17T13:22:35.318Z,101137.38
2022-08-17T13:26:49.116Z,101138.41
2022-08-17T13:30:50.727Z,101149.25
2022-08-17T13:35:11.931Z,101139.47
2022-08-17T13:39:22.904Z,101143.63
2022-08-17T13:43:45.301Z,101143.41
2022-08-17T13:47:47.095Z,101140.69
2022-08-17T13:51:51.510Z,101135.66
2022-08-17T13:56:37.531Z,101129.41
2022-08-17T14:00:36.765Z,101133.19
2022-08-17T14:04:41.419Z,101130.22
2022-08-17T14:08:43.045Z,101132.31
2022-08-17T14:12:46.828Z,101128.34
2022-08-17T14:16:50.222Z,101123.53
2022-08-17T14:20:53.288Z,101128.53
2022-08-17T14:24:54.923Z,101132.91
2022-08-17T14:28:57.134Z,101123.94
2022-08-17T14:32:59.537Z,101118.03
2022-08-17T14:37:01.144Z,101122.63
2022-08-17T14:41:03.048Z,101110.97
2022-08-17T14:45:07.022Z,101118.66
2022-08-17T14:49:30.265Z,101120.13
2022-08-17T14:53:32.156Z,101118.81
2022-08-17T14:57:34.627Z,101116.34
2022-08-17T15:01:36.827Z,101125.53
2022-08-17T15:05:39.497Z,101114.84
2022-08-17T15:09:41.108Z,101118.78
2022-08-17T15:13:53.107Z,101113.34
2022-08-17T15:17:55.093Z,101126.63
2022-08-17T15:21:57.021Z,101130.72
2022-08-17T15:25:58.829Z,101140.06
2022-08-17T15:30:01.907Z,101139.00
2022-08-17T15:34:05.302Z,101134.31
2022-08-17T15:38:12.345Z,101133.88
2022-08-17T15:42:14.680Z,101122.41
2022-08-17T15:46:20.378Z,101126.03
2022-08-17T15:50:22.120Z,101139.41
2022-08-17T15:54:23.776Z,101137.22
2022-08-17T15:58:29.849Z,101131.59
2022-08-17T16:03:44.837Z,101127.69
2022-08-17T16:06:57.577Z,101128.75
2022-08-17T16:10:59.633Z,101131.66
2022-08-17T16:15:02.507Z,101132.94
2022-08-17T16:19:04.129Z,101128.41
2022-08-17T16:23:05.865Z,101125.09
2022-08-17T16:27:12.523Z,101115.72
2022-08-17T16:31:14.582Z,101124.31
2022-08-17T16:35:16.970Z,101138.91
2022-08-17T16:39:18.650Z,101140.63
2022-08-17T16:43:20.300Z,101140.25
2022-08-17T16:47:22.597Z,101140.69
2022-08-17T16:51:24.776Z,101140.69
2022-08-17T16:55:26.579Z,101141.13
2022-08-17T16:59:30.446Z,101149.50
2022-08-17T17:03:34.733Z,101147.59
2022-08-17T17:07:40.222Z,101144.47
2022-08-17T17:11:47.739Z,101148.44
2022-08-17T17:15:58.987Z,101151.38
2022-08-17T17:20:11.251Z,101152.41
2022-08-17T17:24:36.856Z,101159.13
2022-08-17T17:28:56.971Z,101160.59
2022-08-17T17:33:29.772Z,101155.38
2022-08-17T17:37:38.012Z,101164.34
2022-08-17T17:41:54.069Z,101168.75
2022-08-17T17:46:26.580Z,101173.94
2022-08-17T17:50:34.628Z,101172.03
2022-08-17T17:55:01.055Z,101178.28
2022-08-17T17:59:18.516Z,101174.56
2022-08-17T18:03:46.145Z,101183.50
2022-08-17T18:07:59.204Z,101169.97
2022-08-17T18:12:11.236Z,101177.47
2022-08-17T18:16:14.400Z,101185.81
2022-08-17T18:20:35.934Z,101202.53
2022-08-17T18:24:57.160Z,101199.41
2022-08-17T18:29:00.458Z,101202.56
2022-08-17T18:33:23.680Z,101192.53
2022-08-17T18:37:36.031Z,101192.53
2022-08-17T18:41:47.014Z,101193.00
2022-08-17T18:45:52.185Z,101196.34
2022-08-17T18:50:27.384Z,101199.03
2022-08-17T18:54:29.072Z,101195.94
2022-08-17T18:58:30.789Z,101194.69
2022-08-17T19:02:45.270Z,101198.44
2022-08-17T19:07:03.507Z,101210.34
2022-08-17T19:11:16.834Z,101215.75
2022-08-17T19:15:30.094Z,101223.25
2022-08-17T19:19:49.329Z,101223.09
2022-08-17T19:24:01.365Z,101227.88
2022-08-17T19:28:15.397Z,101227.28
2022-08-17T19:32:32.069Z,101223.94
2022-08-17T19:36:52.926Z,101236.88
2022-08-17T19:41:06.704Z,101246.03
2022-08-17T19:45:08.371Z,101255.22
2022-08-17T19:49:22.666Z,101247.72
2022-08-17T19:54:05.790Z,101245.19
2022-08-17T19:58:17.954Z,101251.88
2022-08-17T20:02:42.526Z,101243.31
2022-08-17T20:06:49.232Z,101225.59
2022-08-17T20:10:57.004Z,101234.94
2022-08-17T20:15:04.892Z,101225.78
2022-08-17T20:19:32.771Z,101230.59
2022-08-17T20:23:59.811Z,101240.16
2022-08-17T20:28:29.569Z,101235.81
2022-08-17T20:32:55.344Z,101243.06
2022-08-17T20:37:08.783Z,101246.44
2022-08-17T20:41:20.956Z,101239.34
2022-08-17T20:45:26.168Z,101243.31
2022-08-17T20:49:45.670Z,101251.25
2022-08-17T20:53:47.211Z,101256.06
2022-08-17T20:57:49.024Z,101247.09
2022-08-17T21:02:20.675Z,101249.41
2022-08-17T21:06:25.027Z,101253.16
2022-08-17T21:10:26.539Z,101254.22
2022-08-17T21:14:58.644Z,101256.50
2022-08-17T21:19:09.867Z,101246.50
2022-08-17T21:23:21.066Z,101255.66
2022-08-17T21:28:00.531Z,101255.66
2022-08-17T21:32:05.418Z,101247.75
2022-08-17T21:36:15.151Z,101254.41
2022-08-17T21:40:27.132Z,101248.59
2022-08-17T21:44:35.185Z,101259.88
2022-08-17T21:48:49.296Z,101258.19
2022-08-17T21:52:57.209Z,101264.00
2022-08-17T21:57:02.310Z,101269.44
2022-08-17T22:01:19.389Z,101273.19
2022-08-17T22:05:30.513Z,101273.19
2022-08-17T22:09:40.404Z,101281.53
2022-08-17T22:13:42.044Z,101274.47
2022-08-17T22:17:46.759Z,101267.38
2022-08-17T22:22:03.253Z,101287.38
2022-08-17T22:26:09.680Z,101281.34
2022-08-17T22:30:31.996Z,101290.72
2022-08-17T22:34:33.662Z,101289.88
2022-08-17T22:38:35.652Z,101300.31
2022-08-17T22:42:49.716Z,101303.00
2022-08-17T22:46:54.456Z,101314.25
2022-08-17T22:51:12.469Z,101321.75
2022-08-17T22:55:36.267Z,101323.63
2022-08-17T22:59:41.489Z,101322.78
2022-08-17T23:03:54.715Z,101302.78
2022-08-17T23:07:56.376Z,101301.13
2022-08-17T23:11:58.780Z,101303.00
2022-08-17T23:16:00.498Z,101305.72
2022-08-17T23:20:02.778Z,101300.09
2022-08-17T23:24:08.786Z,101287.19
2022-08-17T23:28:11.334Z,101278.00
2022-08-17T23:32:15.826Z,101278.00
2022-08-17T23:36:17.548Z,101289.25
2022-08-17T23:40:19.226Z,101298.44
2022-08-17T23:44:24.294Z,101313.00
2022-08-17T23:48:34.961Z,101315.72
2022-08-17T23:52:41.236Z,101307.78
2022-08-17T23:56:48.405Z,101295.09
